Time;durP1;ratioP1;P1;durP2;ratioP2;P2;SDS_P1;SDS_P2;PMS_P1;PMS_P2;Temp;Humidity;BMP_temperature;BMP_pressure;BME280_temperature;BME280_humidity;BME280_pressure;Samples;Min_cycle;Max_cycle;Signal;HPM_P1;HPM_P2
2024/03/02 00:01:43;;;;;;;16.13;10.45;;;9.40;99.90;;;;;;5044323;28;20291;-80
2024/03/02 00:04:11;;;;;;;12.25;9.80;;;9.50;99.90;;;;;;5049180;28;20501;-80
2024/03/02 00:06:40;;;;;;;12.45;10.93;;;9.50;99.90;;;;;;5041553;28;20247;-80
2024/03/02 00:09:12;;;;;;;8.60;7.80;;;9.50;99.90;;;;;;5054607;28;20210;-78
2024/03/02 00:11:40;;;;;;;8.95;8.02;;;9.50;99.90;;;;;;5042101;28;20531;-81
2024/03/02 00:14:08;;;;;;;9.73;8.20;;;9.40;99.90;;;;;;5047028;28;20196;-81
2024/03/02 00:16:36;;;;;;;9.27;7.25;;;9.30;99.90;;;;;;5049295;28;20208;-81
2024/03/02 00:19:08;;;;;;;9.27;8.65;;;9.30;99.90;;;;;;5046873;28;20209;-79
2024/03/02 00:21:36;;;;;;;8.60;7.82;;;9.20;99.90;;;;;;5041347;28;20234;-81
2024/03/02 00:24:30;;;;;;;11.38;10.60;;;9.00;99.90;;;;;;5044575;28;20209;-80
2024/03/02 00:27:14;;;;;;;14.18;13.30;;;9.10;99.90;;;;;;5049663;28;20192;-81
2024/03/02 00:29:44;;;;;;;9.27;8.40;;;9.10;99.90;;;;;;5062237;28;20211;-80
2024/03/02 00:32:15;;;;;;;6.85;6.22;;;9.00;99.90;;;;;;5039712;28;20247;-81
2024/03/02 00:34:43;;;;;;;13.93;12.77;;;9.00;99.90;;;;;;5037867;28;20531;-80
2024/03/02 00:37:14;;;;;;;9.48;8.57;;;9.10;99.90;;;;;;5049958;28;20215;-80
2024/03/02 00:39:42;;;;;;;7.57;6.85;;;9.30;99.90;;;;;;5057343;28;20219;-80
2024/03/02 00:42:10;;;;;;;11.65;10.88;;;9.10;99.90;;;;;;5056061;28;20223;-84
2024/03/02 00:44:37;;;;;;;9.30;8.48;;;9.10;99.90;;;;;;5055370;28;20200;-80
2024/03/02 00:47:04;;;;;;;11.45;10.35;;;9.10;99.90;;;;;;5052494;28;20215;-83
2024/03/02 00:49:32;;;;;;;17.42;12.75;;;9.00;99.90;;;;;;5042569;28;20235;-81
2024/03/02 00:52:01;;;;;;;8.27;7.72;;;9.00;99.90;;;;;;5050008;28;20404;-81
2024/03/02 00:54:30;;;;;;;9.65;7.55;;;9.10;99.90;;;;;;5045653;28;20204;-81
2024/03/02 00:56:58;;;;;;;8.88;8.18;;;9.20;99.90;;;;;;5043641;28;20200;-81
2024/03/02 00:59:26;;;;;;;9.57;8.95;;;9.10;99.90;;;;;;5045077;28;20245;-79
2024/03/02 01:01:53;;;;;;;13.57;10.50;;;9.10;99.90;;;;;;5041195;28;20228;-81
2024/03/02 01:04:21;;;;;;;9.20;8.43;;;9.40;99.90;;;;;;5042226;28;20205;-82
2024/03/02 01:06:49;;;;;;;11.30;10.30;;;9.10;99.90;;;;;;5039442;28;20236;-81
2024/03/02 01:09:17;;;;;;;9.00;8.43;;;9.30;99.90;;;;;;5041899;28;20208;-80
2024/03/02 01:11:50;;;;;;;10.40;8.60;;;9.20;99.90;;;;;;5041855;28;20215;-81
2024/03/02 01:14:17;;;;;;;11.85;10.35;;;9.30;99.90;;;;;;5032062;28;20263;-81
2024/03/02 01:16:45;;;;;;;11.57;9.77;;;9.30;99.90;;;;;;5048961;28;20200;-80
2024/03/02 01:19:19;;;;;;;10.32;9.30;;;9.30;99.90;;;;;;5040989;28;20250;-81
2024/03/02 01:21:46;;;;;;;11.70;9.93;;;9.30;99.90;;;;;;5042875;28;20246;-79
2024/03/02 01:24:14;;;;;;;13.90;12.57;;;9.10;99.90;;;;;;5047650;28;20201;-79
2024/03/02 01:26:43;;;;;;;15.95;14.73;;;9.20;99.90;;;;;;5043328;28;20295;-82
2024/03/02 01:29:11;;;;;;;8.30;7.70;;;9.20;99.90;;;;;;5052151;28;20196;-82
2024/03/02 01:31:41;;;;;;;8.52;7.80;;;9.20;99.90;;;;;;5046331;28;20200;-81
2024/03/02 01:34:12;;;;;;;9.07;8.32;;;9.30;99.90;;;;;;5064370;28;20223;-80
2024/03/02 01:36:43;;;;;;;9.68;8.98;;;9.30;99.90;;;;;;5036837;28;20208;-78
2024/03/02 01:39:11;;;;;;;13.75;12.88;;;9.30;99.90;;;;;;5052494;28;20279;-81
2024/03/02 01:41:39;;;;;;;13.13;12.10;;;9.40;99.90;;;;;;5046596;28;20232;-83
2024/03/02 01:44:05;;;;;;;11.07;10.27;;;9.20;99.90;;;;;;5028640;28;20267;-80
2024/03/02 01:46:34;;;;;;;15.38;13.43;;;9.30;99.90;;;;;;5050569;28;20235;-81
2024/03/02 01:49:02;;;;;;;4.40;4.18;;;9.30;99.90;;;;;;5048809;28;20568;-80
2024/03/02 01:51:30;;;;;;;10.50;9.40;;;9.30;99.90;;;;;;5047979;28;20207;-80
2024/03/02 01:53:58;;;;;;;8.70;8.10;;;9.30;99.90;;;;;;5043411;28;20208;-81
2024/03/02 01:56:25;;;;;;;11.98;10.98;;;9.30;99.90;;;;;;5054484;28;20441;-79
2024/03/02 01:58:53;;;;;;;7.13;6.68;;;9.40;99.90;;;;;;5056789;28;20208;-80
2024/03/02 02:01:20;;;;;;;7.70;7.10;;;9.30;99.90;;;;;;5051736;28;20205;-81
2024/03/02 02:03:47;;;;;;;16.40;14.77;;;9.10;99.90;;;;;;5044262;28;20215;-82
2024/03/02 02:06:14;;;;;;;12.70;11.70;;;9.20;99.90;;;;;;5051013;28;20240;-80
2024/03/02 02:08:41;;;;;;;8.13;6.07;;;9.20;99.90;;;;;;5058490;28;20223;-79
2024/03/02 02:11:09;;;;;;;16.17;14.73;;;9.10;99.90;;;;;;5050052;28;20211;-80
2024/03/02 02:13:36;;;;;;;9.35;8.68;;;9.20;99.90;;;;;;5048494;28;20268;-79
2024/03/02 02:16:08;;;;;;;12.50;11.50;;;9.20;99.90;;;;;;5046879;28;20511;-81
2024/03/02 02:18:37;;;;;;;10.30;9.70;;;9.20;99.90;;;;;;5044330;28;20240;-79
2024/03/02 02:21:05;;;;;;;8.65;7.82;;;9.20;99.90;;;;;;5045916;28;20200;-79
2024/03/02 02:23:32;;;;;;;11.45;10.55;;;9.20;99.90;;;;;;5047910;28;20231;-79
2024/03/02 02:26:03;;;;;;;9.32;8.73;;;9.20;99.90;;;;;;5042237;28;20201;-80
2024/03/02 02:28:33;;;;;;;9.70;8.95;;;9.20;99.90;;;;;;5051443;28;20508;-79
2024/03/02 02:31:02;;;;;;;9.57;8.73;;;9.10;99.90;;;;;;5052424;28;20354;-81
2024/03/02 02:33:31;;;;;;;9.27;8.10;;;9.10;99.90;;;;;;5042498;28;20212;-79
2024/03/02 02:35:58;;;;;;;11.57;10.45;;;9.00;99.90;;;;;;5042889;28;20244;-80
2024/03/02 02:38:28;;;;;;;10.07;9.38;;;9.00;99.90;;;;;;5045128;28;20236;-83
2024/03/02 02:40:55;;;;;;;10.38;9.55;;;8.90;99.90;;;;;;5051233;28;20215;-82
2024/03/02 02:43:23;;;;;;;14.23;12.40;;;9.00;99.90;;;;;;5043877;28;20228;-82
2024/03/02 02:45:52;;;;;;;8.63;8.20;;;8.70;99.90;;;;;;5052512;28;20447;-80
2024/03/02 02:48:20;;;;;;;13.48;12.45;;;8.60;99.90;;;;;;5055860;28;20260;-81
2024/03/02 02:50:47;;;;;;;9.30;8.65;;;8.60;99.90;;;;;;5045258;28;20208;-82
2024/03/02 02:53:17;;;;;;;10.93;10.15;;;8.50;99.90;;;;;;5062311;28;20235;-77
2024/03/02 02:55:43;;;;;;;10.52;9.60;;;8.50;99.90;;;;;;5037431;28;20243;-80
2024/03/02 02:58:11;;;;;;;7.18;6.78;;;8.40;99.90;;;;;;5026321;28;20235;-80
2024/03/02 03:00:39;;;;;;;7.40;6.88;;;8.20;99.90;;;;;;5040528;28;20247;-82
2024/03/02 03:03:07;;;;;;;12.15;10.73;;;8.20;99.90;;;;;;5040501;28;20263;-80
2024/03/02 03:05:34;;;;;;;9.88;5.22;;;8.40;99.90;;;;;;5044221;28;20766;-81
2024/03/02 03:08:09;;;;;;;6.35;5.95;;;8.30;99.90;;;;;;5053671;28;20209;-81
2024/03/02 03:10:41;;;;;;;8.82;8.10;;;8.20;99.90;;;;;;5025828;28;20280;-80
2024/03/02 03:13:09;;;;;;;11.93;11.25;;;8.10;99.90;;;;;;5032435;28;20227;-81
2024/03/02 03:15:37;;;;;;;11.10;10.32;;;8.20;99.90;;;;;;5048845;28;20500;-82
2024/03/02 03:18:04;;;;;;;8.70;7.95;;;8.30;99.90;;;;;;5056914;28;20219;-81
2024/03/02 03:20:32;;;;;;;12.23;11.23;;;8.40;99.90;;;;;;5050562;28;20200;-81
2024/03/02 03:22:59;;;;;;;8.57;7.97;;;8.40;99.90;;;;;;5055248;28;20302;-81
2024/03/02 03:25:28;;;;;;;19.30;9.65;;;8.50;99.90;;;;;;5020892;28;20209;-81
2024/03/02 03:27:55;;;;;;;18.25;9.68;;;8.60;99.90;;;;;;5040011;28;20196;-80
2024/03/02 03:30:22;;;;;;;12.50;11.30;;;8.60;99.90;;;;;;5051409;28;20246;-79
2024/03/02 03:32:50;;;;;;;10.23;9.40;;;8.70;99.90;;;;;;5044161;28;20216;-79
2024/03/02 03:35:18;;;;;;;20.50;13.05;;;8.70;99.90;;;;;;5049113;28;20397;-79
2024/03/02 03:37:46;;;;;;;12.77;11.45;;;8.80;99.90;;;;;;5049789;28;20209;-79
2024/03/02 03:40:14;;;;;;;10.18;9.32;;;8.70;99.90;;;;;;5044170;28;20643;-78
2024/03/02 03:42:42;;;;;;;13.80;8.77;;;8.70;99.90;;;;;;5041877;28;20254;-79
2024/03/02 03:45:11;;;;;;;12.38;10.63;;;8.80;99.90;;;;;;5024510;28;20203;-79
2024/03/02 03:47:38;;;;;;;14.18;9.70;;;8.80;99.90;;;;;;5049667;28;20219;-81
2024/03/02 03:50:08;;;;;;;10.30;9.25;;;8.80;99.90;;;;;;5044113;28;20223;-80
2024/03/02 03:52:35;;;;;;;6.43;5.95;;;8.80;99.90;;;;;;5045129;28;20231;-80
2024/03/02 03:55:05;;;;;;;12.13;9.27;;;8.80;99.90;;;;;;5051976;28;20381;-79
2024/03/02 03:57:33;;;;;;;11.25;10.45;;;8.80;99.90;;;;;;5040707;28;20245;-79
2024/03/02 04:00:01;;;;;;;6.85;5.80;;;8.80;99.90;;;;;;5042224;28;20524;-80
2024/03/02 04:02:28;;;;;;;14.55;13.50;;;9.00;99.90;;;;;;5045360;28;20223;-81
2024/03/02 04:04:56;;;;;;;9.65;9.10;;;8.80;99.90;;;;;;5043907;28;20208;-81
2024/03/02 04:07:24;;;;;;;4.40;4.20;;;8.80;99.90;;;;;;5044964;28;20203;-78
2024/03/02 04:09:53;;;;;;;8.98;8.20;;;8.80;99.90;;;;;;5048745;28;20546;-79
2024/03/02 04:12:20;;;;;;;8.90;8.10;;;8.80;99.90;;;;;;5046068;28;20380;-79
2024/03/02 04:14:55;;;;;;;10.60;9.80;;;8.90;99.90;;;;;;5050287;28;20208;-80
2024/03/02 04:17:22;;;;;;;10.02;9.25;;;8.80;99.90;;;;;;5057440;28;20223;-81
2024/03/02 04:19:49;;;;;;;7.88;7.47;;;8.90;99.90;;;;;;5046421;28;20224;-80
2024/03/02 04:22:18;;;;;;;7.28;6.70;;;8.80;99.90;;;;;;5049151;28;20771;-79
2024/03/02 04:24:51;;;;;;;8.07;7.47;;;8.90;99.90;;;;;;5047816;28;20229;-80
2024/03/02 04:27:19;;;;;;;10.18;9.27;;;8.80;99.90;;;;;;5054255;28;20377;-78
2024/03/02 04:29:46;;;;;;;4.07;3.78;;;8.80;99.90;;;;;;5048036;28;20582;-80
2024/03/02 04:32:14;;;;;;;14.82;9.98;;;8.70;99.90;;;;;;5051962;28;20209;-80
2024/03/02 04:34:41;;;;;;;6.88;6.35;;;8.80;99.90;;;;;;5039497;28;20221;-78
2024/03/02 04:37:09;;;;;;;5.50;4.95;;;8.80;99.90;;;;;;5032358;28;20211;-83
2024/03/02 04:39:36;;;;;;;9.73;8.88;;;8.50;99.90;;;;;;5048122;28;20201;-81
2024/03/02 04:42:04;;;;;;;11.85;10.82;;;8.60;99.90;;;;;;5048067;28;20216;-80
2024/03/02 04:44:30;;;;;;;11.25;9.15;;;8.60;99.90;;;;;;5047673;28;20203;-83
2024/03/02 04:46:57;;;;;;;5.40;5.00;;;8.50;99.90;;;;;;5039781;28;20771;-79
2024/03/02 04:49:25;;;;;;;9.10;8.30;;;8.50;99.90;;;;;;5046589;28;20260;-78
2024/03/02 04:51:54;;;;;;;9.55;8.75;;;8.40;99.90;;;;;;5042913;28;20470;-80
2024/03/02 04:54:25;;;;;;;7.78;7.38;;;8.40;99.90;;;;;;5040552;28;20196;-80
2024/03/02 04:56:53;;;;;;;6.78;6.40;;;8.40;99.90;;;;;;5031932;28;20222;-81
2024/03/02 04:59:22;;;;;;;5.88;5.47;;;8.30;99.90;;;;;;5034138;28;20721;-79
2024/03/02 05:01:49;;;;;;;8.25;7.60;;;8.30;99.90;;;;;;5051510;28;20232;-79
2024/03/02 05:04:18;;;;;;;10.07;9.40;;;8.20;99.90;;;;;;5056441;28;20223;-78
2024/03/02 05:06:50;;;;;;;9.05;5.53;;;8.10;99.90;;;;;;5053262;28;20223;-81
2024/03/02 05:09:19;;;;;;;10.48;9.50;;;8.30;99.90;;;;;;5047952;28;20212;-82
2024/03/02 05:14:50;;;;;;;6.70;6.30;;;8.10;99.90;;;;;;5061702;28;20184;-83
2024/03/02 05:17:19;;;;;;;8.35;7.60;;;8.10;99.90;;;;;;5067205;28;20192;-84
2024/03/02 05:19:48;;;;;;;13.32;12.07;;;8.10;99.90;;;;;;5065627;28;20231;-81
2024/03/02 05:22:15;;;;;;;10.38;9.75;;;8.10;99.90;;;;;;5049412;28;20265;-85
2024/03/02 05:24:45;;;;;;;6.45;5.78;;;8.00;99.90;;;;;;5048115;28;20255;-80
2024/03/02 05:27:14;;;;;;;7.18;6.72;;;7.90;99.90;;;;;;5037016;28;20196;-83
2024/03/02 05:29:42;;;;;;;7.63;7.13;;;7.80;99.90;;;;;;5037025;28;20203;-80
2024/03/02 05:32:10;;;;;;;5.50;5.10;;;8.00;99.90;;;;;;5049454;28;20693;-81
2024/03/02 05:34:37;;;;;;;11.77;10.93;;;7.80;99.90;;;;;;5051505;28;20623;-80
2024/03/02 05:37:10;;;;;;;7.50;7.00;;;7.80;99.90;;;;;;5049267;28;20264;-80
2024/03/02 05:39:39;;;;;;;10.00;9.40;;;7.90;99.90;;;;;;5037114;28;20371;-81
2024/03/02 05:42:09;;;;;;;9.70;8.73;;;7.70;99.90;;;;;;5048672;28;20200;-81
2024/03/02 05:44:37;;;;;;;10.82;9.95;;;7.80;99.90;;;;;;5043065;28;20400;-81
2024/03/02 05:47:04;;;;;;;6.43;6.07;;;7.80;99.90;;;;;;5047338;28;20205;-81
2024/03/02 05:49:33;;;;;;;9.15;6.82;;;7.80;99.90;;;;;;5059391;28;20208;-81
2024/03/02 05:52:12;;;;;;;14.25;13.30;;;7.90;99.90;;;;;;5054538;28;20215;-82
2024/03/02 05:54:42;;;;;;;11.13;10.20;;;7.80;99.90;;;;;;5055367;28;20204;-87
2024/03/02 05:57:31;;;;;;;7.70;7.20;;;7.70;99.90;;;;;;5050552;28;20200;-81
2024/03/02 06:00:04;;;;;;;7.82;6.95;;;7.80;99.90;;;;;;5042280;28;20447;-77
2024/03/02 06:02:31;;;;;;;7.78;7.18;;;7.80;99.90;;;;;;5045348;28;20702;-81
2024/03/02 06:05:00;;;;;;;9.05;8.52;;;7.80;99.90;;;;;;5048272;28;20266;-83
2024/03/02 06:07:28;;;;;;;12.82;11.73;;;7.80;99.90;;;;;;5039214;28;20264;-81
2024/03/02 06:09:55;;;;;;;7.28;6.88;;;7.90;99.90;;;;;;5049725;28;20227;-81
2024/03/02 06:12:28;;;;;;;8.32;7.78;;;7.90;99.90;;;;;;5047981;28;20240;-82
2024/03/02 06:14:55;;;;;;;13.52;7.97;;;7.90;99.90;;;;;;5047988;28;20203;-82
2024/03/02 06:17:22;;;;;;;6.30;5.78;;;7.90;99.90;;;;;;5046392;28;20272;-80
2024/03/02 06:19:49;;;;;;;9.43;8.43;;;7.90;99.90;;;;;;5049528;28;20239;-81
2024/03/02 06:22:16;;;;;;;11.52;9.85;;;7.90;99.90;;;;;;5049821;28;20274;-79
2024/03/02 06:24:43;;;;;;;7.60;5.85;;;7.90;99.90;;;;;;5051516;28;20350;-83
2024/03/02 06:27:10;;;;;;;7.05;6.57;;;7.90;99.90;;;;;;5051068;28;20212;-81
2024/03/02 06:29:37;;;;;;;9.27;8.40;;;7.90;99.90;;;;;;5042613;28;20295;-83
2024/03/02 06:32:04;;;;;;;12.00;8.88;;;7.90;99.90;;;;;;5045337;28;20385;-81
2024/03/02 06:34:31;;;;;;;9.27;7.53;;;7.90;99.90;;;;;;5040754;28;20215;-81
2024/03/02 06:36:58;;;;;;;10.52;9.75;;;8.00;99.90;;;;;;5043380;28;20192;-80
2024/03/02 06:39:25;;;;;;;6.57;5.60;;;8.00;99.90;;;;;;5049824;28;20201;-82
2024/03/02 06:41:53;;;;;;;8.18;7.50;;;8.10;99.90;;;;;;5042528;28;20213;-80
2024/03/02 06:44:21;;;;;;;20.88;7.63;;;8.10;99.90;;;;;;5042918;28;20255;-81
2024/03/02 06:46:48;;;;;;;8.05;7.63;;;8.20;99.90;;;;;;5038697;28;20397;-80
2024/03/02 06:49:17;;;;;;;4.68;4.38;;;8.20;99.90;;;;;;5046227;28;20481;-79
2024/03/02 06:51:44;;;;;;;9.32;8.75;;;8.20;99.90;;;;;;5046940;28;20497;-79
2024/03/02 06:54:11;;;;;;;6.43;5.95;;;8.30;99.90;;;;;;5047858;28;20236;-83
2024/03/02 06:56:39;;;;;;;7.03;6.28;;;8.30;99.90;;;;;;5050971;28;20235;-79
2024/03/02 06:59:06;;;;;;;7.90;6.47;;;8.20;99.90;;;;;;5048007;28;20640;-80
2024/03/02 07:01:32;;;;;;;9.45;7.40;;;8.40;99.90;;;;;;5056306;28;20403;-79
2024/03/02 07:03:59;;;;;;;5.18;4.93;;;8.40;99.90;;;;;;5048023;28;20244;-79
2024/03/02 07:06:27;;;;;;;9.32;8.80;;;8.70;99.90;;;;;;5036818;28;20197;-79
2024/03/02 07:08:54;;;;;;;14.65;5.90;;;8.90;99.90;;;;;;5052516;28;20342;-78
2024/03/02 07:11:21;;;;;;;7.95;6.60;;;9.00;99.90;;;;;;5044012;28;20441;-79
2024/03/02 07:13:48;;;;;;;2.35;2.25;;;9.10;99.90;;;;;;5052130;28;20276;-80
2024/03/02 07:16:27;;;;;;;12.07;9.32;;;9.10;99.90;;;;;;5034503;28;20288;-80
2024/03/02 07:18:56;;;;;;;5.75;5.55;;;9.50;99.90;;;;;;5053817;28;20218;-81
2024/03/02 07:21:23;;;;;;;4.90;4.50;;;10.30;99.90;;;;;;5044689;28;20215;-82
2024/03/02 07:23:54;;;;;;;6.10;5.55;;;10.70;99.90;;;;;;5051707;28;20493;-81
2024/03/02 07:26:21;;;;;;;3.90;3.70;;;11.40;99.90;;;;;;5057498;28;20412;-80
2024/03/02 07:28:51;;;;;;;9.10;8.48;;;11.60;99.90;;;;;;5044164;28;20208;-79
2024/03/02 07:31:23;;;;;;;3.42;3.22;;;12.20;99.90;;;;;;5037824;28;20580;-81
2024/03/02 07:33:59;;;;;;;4.78;4.55;;;12.00;99.90;;;;;;5047208;28;20459;-80
2024/03/02 07:36:28;;;;;;;4.55;4.20;;;11.90;99.90;;;;;;5037393;28;20275;-81
2024/03/02 07:38:56;;;;;;;5.50;5.07;;;12.80;99.90;;;;;;5046680;28;20210;-79
2024/03/02 07:41:23;;;;;;;6.13;5.83;;;13.60;99.90;;;;;;5047524;28;20616;-80
2024/03/02 07:43:50;;;;;;;6.53;5.77;;;14.20;99.90;;;;;;5041154;28;20749;-80
2024/03/02 07:46:17;;;;;;;5.80;5.50;;;14.50;99.90;;;;;;5043164;28;20449;-79
2024/03/02 07:48:44;;;;;;;8.67;6.50;;;13.20;99.90;;;;;;5043225;28;20501;-80
2024/03/02 07:51:11;;;;;;;8.20;7.50;;;13.70;99.90;;;;;;5038486;28;20437;-80
2024/03/02 07:53:38;;;;;;;5.87;5.47;;;13.80;99.90;;;;;;5044180;28;20455;-78
2024/03/02 07:56:05;;;;;;;4.33;4.13;;;14.80;99.90;;;;;;5051512;28;20470;-82
2024/03/02 07:58:33;;;;;;;3.97;3.77;;;15.20;99.90;;;;;;5052364;28;20483;-83
2024/03/02 08:01:05;;;;;;;9.10;7.90;;;15.10;99.90;;;;;;5041498;28;20694;-80
2024/03/02 08:03:34;;;;;;;9.43;8.63;;;15.70;99.90;;;;;;5045080;28;20553;-78
2024/03/02 08:06:01;;;;;;;6.20;5.63;;;14.50;99.90;;;;;;5043395;28;20441;-80
2024/03/02 08:08:28;;;;;;;3.77;3.50;;;14.80;99.90;;;;;;5038354;28;20479;-79
2024/03/02 08:10:55;;;;;;;10.37;6.87;;;15.00;99.90;;;;;;5037735;28;20423;-78
2024/03/02 08:13:24;;;;;;;8.73;7.30;;;15.40;99.90;;;;;;5032914;28;20455;-79
2024/03/02 08:15:51;;;;;;;5.23;4.93;;;15.10;99.90;;;;;;5029900;28;20859;-79
2024/03/02 08:18:19;;;;;;;6.00;5.67;;;13.40;99.90;;;;;;5043207;28;20496;-80
2024/03/02 08:20:46;;;;;;;7.53;7.03;;;13.50;99.90;;;;;;5039602;28;20438;-78
2024/03/02 08:23:15;;;;;;;3.73;3.57;;;13.70;99.90;;;;;;5035210;28;20479;-79
2024/03/02 08:25:42;;;;;;;3.00;2.90;;;13.20;99.90;;;;;;5037378;28;20457;-79
2024/03/02 08:28:09;;;;;;;6.00;5.70;;;13.80;99.90;;;;;;5040619;28;20529;-78
2024/03/02 08:30:36;;;;;;;1.33;1.33;;;13.60;99.90;;;;;;5046731;28;20441;-77
2024/03/02 08:33:04;;;;;;;4.03;3.83;;;13.50;99.90;;;;;;5044804;28;20892;-79
2024/03/02 08:35:35;;;;;;;2.30;2.20;;;12.50;99.90;;;;;;5048815;28;20491;-79
2024/03/02 08:38:04;;;;;;;4.37;4.07;;;12.30;99.90;;;;;;5046360;28;20421;-79
2024/03/02 08:40:31;;;;;;;5.30;5.00;;;12.50;99.90;;;;;;5037510;28;20425;-80
2024/03/02 08:42:58;;;;;;;6.40;6.00;;;12.80;99.90;;;;;;5040234;28;20445;-80
2024/03/02 08:45:25;;;;;;;6.23;4.47;;;13.20;99.90;;;;;;5042207;28;20484;-80
2024/03/02 08:47:52;;;;;;;5.10;4.70;;;12.90;99.90;;;;;;5047676;28;20441;-78
2024/03/02 08:50:19;;;;;;;5.17;4.67;;;13.20;99.90;;;;;;5033897;28;20454;-81
2024/03/02 08:52:46;;;;;;;4.30;4.10;;;13.70;99.90;;;;;;5033058;28;20803;-81
2024/03/02 08:55:13;;;;;;;4.77;4.17;;;13.60;99.90;;;;;;5042390;28;20845;-79
2024/03/02 08:57:41;;;;;;;4.60;4.30;;;13.20;99.90;;;;;;5035362;28;20435;-81
2024/03/02 09:00:09;;;;;;;4.73;4.33;;;13.30;99.90;;;;;;5048468;28;20441;-81
2024/03/02 09:02:36;;;;;;;5.27;4.97;;;13.80;99.90;;;;;;5039509;28;20492;-80
2024/03/02 09:05:05;;;;;;;3.80;3.60;;;13.70;99.90;;;;;;5043977;28;20888;-80
2024/03/02 09:07:32;;;;;;;2.50;2.40;;;13.60;99.90;;;;;;5040012;28;20456;-81
2024/03/02 09:09:58;;;;;;;5.93;5.07;;;13.60;99.90;;;;;;5043506;28;20545;-81
2024/03/02 09:12:26;;;;;;;3.20;3.00;;;13.50;99.90;;;;;;5041356;28;20471;-78
2024/03/02 09:14:53;;;;;;;3.47;3.33;;;13.20;99.90;;;;;;5050516;28;20820;-78
2024/03/02 09:17:20;;;;;;;5.23;4.97;;;13.20;99.90;;;;;;5045437;28;20427;-79
2024/03/02 09:19:47;;;;;;;6.00;5.60;;;13.40;99.90;;;;;;5050287;28;20481;-80
2024/03/02 09:22:14;;;;;;;5.93;5.60;;;13.50;99.90;;;;;;5046193;28;20475;-79
2024/03/02 09:24:41;;;;;;;9.10;7.47;;;13.30;99.90;;;;;;5044887;28;20552;-80
2024/03/02 09:27:08;;;;;;;2.60;2.50;;;13.20;99.90;;;;;;5043669;28;20507;-80
2024/03/02 09:29:36;;;;;;;6.47;6.10;;;13.30;99.90;;;;;;5046182;28;20766;-79
2024/03/02 09:32:03;;;;;;;5.60;5.30;;;13.50;99.90;;;;;;5041284;28;20458;-81
2024/03/02 09:34:30;;;;;;;6.33;5.87;;;13.30;99.90;;;;;;5043906;28;20531;-79
2024/03/02 09:36:57;;;;;;;4.00;3.80;;;13.30;99.90;;;;;;5040348;28;21014;-78
2024/03/02 09:39:27;;;;;;;6.60;6.07;;;13.50;99.90;;;;;;5037029;28;20613;-80
2024/03/02 09:41:54;;;;;;;4.23;4.03;;;13.60;99.90;;;;;;5031876;28;20453;-80
2024/03/02 09:44:22;;;;;;;2.87;2.70;;;13.80;99.90;;;;;;5039234;28;20523;-81
2024/03/02 09:46:49;;;;;;;9.80;5.13;;;13.60;99.90;;;;;;5045853;28;20408;-81
2024/03/02 09:49:16;;;;;;;5.13;4.90;;;13.80;99.90;;;;;;5047321;28;20445;-80
2024/03/02 09:51:48;;;;;;;5.03;3.13;;;14.10;99.90;;;;;;5050687;28;20511;-81
2024/03/02 09:54:15;;;;;;;8.00;7.20;;;13.90;99.90;;;;;;5048925;28;20445;-82
2024/03/02 09:56:50;;;;;;;3.43;3.23;;;13.60;99.90;;;;;;5039043;28;20442;-79
2024/03/02 09:59:20;;;;;;;5.87;5.57;;;13.50;99.90;;;;;;5047327;28;20477;-81
2024/03/02 10:01:58;;;;;;;6.33;5.80;;;13.70;99.90;;;;;;5033466;28;20425;-80
2024/03/02 10:04:30;;;;;;;5.83;5.47;;;13.80;99.90;;;;;;5042536;28;20469;-81
2024/03/02 10:07:14;;;;;;;5.40;5.10;;;13.80;99.90;;;;;;5042308;28;20544;-78
2024/03/02 10:09:43;;;;;;;4.67;4.27;;;13.50;99.90;;;;;;5051963;28;20705;-80
2024/03/02 10:12:12;;;;;;;2.77;2.67;;;13.60;99.90;;;;;;5046524;28;20449;-79
2024/03/02 10:14:40;;;;;;;4.97;4.53;;;13.60;99.90;;;;;;5039789;28;20701;-79
2024/03/02 10:17:08;;;;;;;5.97;3.63;;;13.60;99.90;;;;;;5038552;28;20740;-80
2024/03/02 10:19:36;;;;;;;6.97;4.90;;;13.50;99.90;;;;;;5044777;28;20450;-80
2024/03/02 10:22:08;;;;;;;4.10;3.77;;;13.50;99.90;;;;;;5040459;28;20444;-81
2024/03/02 10:24:39;;;;;;;3.53;3.13;;;13.70;99.90;;;;;;5038139;28;20497;-78
2024/03/02 10:27:39;;;;;;;3.23;3.13;;;13.50;99.90;;;;;;5041893;28;20449;-82
2024/03/02 10:30:10;;;;;;;4.53;4.30;;;14.00;99.90;;;;;;5008174;28;20448;-80
2024/03/02 10:32:38;;;;;;;4.40;4.03;;;14.10;99.90;;;;;;5048780;28;20693;-79
2024/03/02 10:35:06;;;;;;;3.60;3.40;;;14.30;99.90;;;;;;5048519;28;20449;-81
2024/03/02 10:37:33;;;;;;;2.80;2.70;;;14.20;99.90;;;;;;5047295;28;20810;-79
2024/03/02 10:40:05;;;;;;;6.03;5.53;;;14.10;99.90;;;;;;5050174;28;20495;-80
2024/03/02 10:42:32;;;;;;;4.03;3.83;;;13.90;99.90;;;;;;5051651;28;20446;-81
2024/03/02 10:44:59;;;;;;;5.33;4.10;;;13.90;99.90;;;;;;5039784;28;20899;-82
2024/03/02 10:47:29;;;;;;;4.20;3.07;;;14.10;99.90;;;;;;5039693;28;20773;-80
2024/03/02 10:49:59;;;;;;;7.83;6.63;;;14.10;99.90;;;;;;5041973;28;20473;-81
2024/03/02 10:52:25;;;;;;;3.40;3.20;;;14.20;99.90;;;;;;5048685;28;20765;-80
2024/03/02 10:54:52;;;;;;;3.63;3.47;;;14.20;99.90;;;;;;5040195;28;20469;-82
2024/03/02 10:57:23;;;;;;;6.27;5.03;;;14.20;99.90;;;;;;5048504;28;20497;-81
2024/03/02 10:59:56;;;;;;;4.37;4.07;;;14.10;99.90;;;;;;5038559;28;20490;-78
2024/03/02 11:02:25;;;;;;;3.73;3.53;;;14.30;99.90;;;;;;5044303;28;20652;-81
2024/03/02 11:04:55;;;;;;;4.80;4.47;;;14.40;99.90;;;;;;5037205;28;20484;-80
2024/03/02 11:07:24;;;;;;;5.47;5.13;;;14.30;99.90;;;;;;5039786;28;20438;-81
2024/03/02 11:09:58;;;;;;;2.17;2.07;;;14.50;99.90;;;;;;5044092;28;20738;-82
2024/03/02 11:12:31;;;;;;;2.57;2.43;;;14.50;99.90;;;;;;5040491;28;20779;-81
2024/03/02 11:15:00;;;;;;;2.90;2.70;;;14.40;99.90;;;;;;5037979;28;20488;-80
2024/03/02 11:17:28;;;;;;;1.60;1.60;;;14.20;99.90;;;;;;5045300;28;20447;-79
2024/03/02 11:19:55;;;;;;;2.87;2.77;;;14.20;99.90;;;;;;5036081;28;20519;-82
2024/03/02 11:22:23;;;;;;;6.67;5.03;;;14.20;99.90;;;;;;5046840;28;20633;-82
2024/03/02 11:24:51;;;;;;;4.40;4.10;;;14.30;99.90;;;;;;5041443;28;20524;-83
2024/03/02 11:27:51;;;;;;;6.47;4.73;;;14.30;99.90;;;;;;5039537;28;20659;-80
2024/03/02 11:30:38;;;;;;;3.60;3.30;;;14.40;99.90;;;;;;5033294;28;20461;-81
2024/03/02 11:33:07;;;;;;;4.17;3.97;;;14.50;99.90;;;;;;5038066;28;20665;-80
2024/03/02 11:35:37;;;;;;;5.60;4.07;;;14.70;99.90;;;;;;5049266;28;20656;-81
2024/03/02 11:38:04;;;;;;;2.33;2.23;;;14.60;99.90;;;;;;5043303;28;20408;-82
2024/03/02 11:40:31;;;;;;;7.13;5.90;;;14.50;99.90;;;;;;5041563;28;20503;-81
2024/03/02 11:43:01;;;;;;;3.30;3.10;;;14.40;99.90;;;;;;5047461;28;20462;-78
2024/03/02 11:45:31;;;;;;;20.47;7.67;;;14.20;99.90;;;;;;5055249;28;20443;-81
2024/03/02 11:47:59;;;;;;;3.13;3.03;;;14.40;99.90;;;;;;5033610;28;20444;-81
2024/03/02 11:50:47;;;;;;;2.13;2.03;;;14.60;99.90;;;;;;5041149;28;20445;-82
2024/03/02 11:53:14;;;;;;;3.10;3.00;;;14.50;99.90;;;;;;5038013;28;20611;-82
2024/03/02 11:55:46;;;;;;;3.50;3.30;;;14.70;99.90;;;;;;5034510;28;20445;-78
2024/03/02 11:58:20;;;;;;;3.53;3.23;;;14.80;99.90;;;;;;5043530;28;20502;-81
2024/03/02 12:00:51;;;;;;;3.43;2.77;;;14.70;99.90;;;;;;5049650;28;20459;-81
2024/03/02 12:03:22;;;;;;;3.03;2.83;;;14.70;99.90;;;;;;5046860;28;20469;-82
2024/03/02 12:05:50;;;;;;;3.03;2.43;;;14.60;99.90;;;;;;5042691;28;20489;-79
2024/03/02 12:08:18;;;;;;;2.50;2.30;;;14.70;99.90;;;;;;5052110;28;20568;-82
2024/03/02 12:10:57;;;;;;;2.80;2.60;;;14.80;99.90;;;;;;5037970;28;20446;-81
2024/03/02 12:13:24;;;;;;;2.60;2.50;;;14.80;99.90;;;;;;5044574;28;20428;-84
2024/03/02 12:15:55;;;;;;;5.13;3.17;;;14.80;99.90;;;;;;5041713;28;20423;-82
2024/03/02 12:18:22;;;;;;;3.33;3.13;;;14.90;99.90;;;;;;4995211;28;1404319;-79
2024/03/02 12:20:56;;;;;;;3.50;3.30;;;14.80;99.90;;;;;;5047202;28;20393;-80
2024/03/02 12:23:23;;;;;;;5.60;3.77;;;14.70;99.90;;;;;;5038042;28;20639;-80
2024/03/02 12:25:51;;;;;;;5.03;4.70;;;14.70;99.90;;;;;;5038231;28;20491;-80
2024/03/02 12:28:19;;;;;;;1.00;1.00;;;14.70;99.90;;;;;;5046262;28;20471;-80
2024/03/02 12:30:47;;;;;;;2.30;2.20;;;14.70;99.90;;;;;;5041809;28;20546;-80
2024/03/02 12:33:14;;;;;;;3.70;3.50;;;14.80;99.90;;;;;;5035853;28;20754;-81
2024/03/02 12:35:42;;;;;;;2.70;2.60;;;14.90;99.90;;;;;;5038618;28;20650;-80
2024/03/02 12:38:10;;;;;;;2.07;1.97;;;14.90;99.90;;;;;;5038742;28;20480;-81
2024/03/02 12:40:38;;;;;;;2.30;2.23;;;14.70;99.90;;;;;;5038476;28;20432;-81
2024/03/02 12:43:06;;;;;;;1.83;1.73;;;14.90;99.90;;;;;;5040468;28;20441;-80
2024/03/02 12:45:34;;;;;;;2.30;2.13;;;15.00;99.90;;;;;;5038717;28;20527;-78
2024/03/02 12:48:04;;;;;;;2.53;2.43;;;15.00;99.90;;;;;;5043103;28;20448;-78
2024/03/02 12:50:31;;;;;;;2.33;2.23;;;14.90;99.90;;;;;;5044680;28;20599;-79
2024/03/02 12:52:58;;;;;;;2.17;2.00;;;14.70;99.90;;;;;;5045124;28;20444;-78
2024/03/02 12:55:26;;;;;;;7.43;5.63;;;14.70;99.90;;;;;;5036770;28;20804;-80
2024/03/02 12:57:53;;;;;;;2.20;2.10;;;14.80;99.90;;;;;;5055492;28;20437;-79
2024/03/02 13:00:21;;;;;;;9.00;4.93;;;15.00;99.90;;;;;;5039739;28;20762;-80